sensor_id;sensor_type;location;lat;lon;timestamp;temperature;humidity
14709;DHT22;7445;50.774;4.944;2023-02-22T08:02:27;4.50;99.90
14709;DHT22;7445;50.774;4.944;2023-02-22T08:04:53;4.60;99.90
14709;DHT22;7445;50.774;4.944;2023-02-22T08:07:19;4.70;99.90
14709;DHT22;7445;50.774;4.944;2023-02-22T08:09:44;4.80;99.90
14709;DHT22;7445;50.774;4.944;2023-02-22T08:12:11;5.00;99.90
14709;DHT22;7445;50.774;4.944;2023-02-22T08:14:37;5.20;99.90
14709;DHT22;7445;50.774;4.944;2023-02-22T08:17:02;5.40;99.90
14709;DHT22;7445;50.774;4.944;2023-02-22T08:19:28;5.50;99.90
14709;DHT22;7445;50.774;4.944;2023-02-22T08:21:53;5.60;99.90
14709;DHT22;7445;50.774;4.944;2023-02-22T08:24:20;5.70;99.90
14709;DHT22;7445;50.774;4.944;2023-02-22T08:26:46;5.80;99.90
14709;DHT22;7445;50.774;4.944;2023-02-22T08:29:12;5.70;99.90
14709;DHT22;7445;50.774;4.944;2023-02-22T08:31:39;5.70;99.90
14709;DHT22;7445;50.774;4.944;2023-02-22T08:34:05;5.70;99.90
14709;DHT22;7445;50.774;4.944;2023-02-22T08:36:31;5.80;99.90
14709;DHT22;7445;50.774;4.944;2023-02-22T08:39:17;6.00;99.90
14709;DHT22;7445;50.774;4.944;2023-02-22T08:42:05;6.10;99.90
14709;DHT22;7445;50.774;4.944;2023-02-22T08:44:36;6.30;99.90
14709;DHT22;7445;50.774;4.944;2023-02-22T08:47:02;6.40;99.90
14709;DHT22;7445;50.774;4.944;2023-02-22T08:49:30;6.70;99.90
14709;DHT22;7445;50.774;4.944;2023-02-22T08:51:56;6.80;99.90
14709;DHT22;7445;50.774;4.944;2023-02-22T08:54:22;7.00;99.90
14709;DHT22;7445;50.774;4.944;2023-02-22T08:56:48;7.20;99.90
14709;DHT22;7445;50.774;4.944;2023-02-22T08:59:20;7.40;99.90
14709;DHT22;7445;50.774;4.944;2023-02-22T09:01:56;7.50;99.90
14709;DHT22;7445;50.774;4.944;2023-02-22T09:04:33;7.70;99.90
14709;DHT22;7445;50.774;4.944;2023-02-22T09:06:59;7.80;99.90
14709;DHT22;7445;50.774;4.944;2023-02-22T09:09:24;7.90;99.90
14709;DHT22;7445;50.774;4.944;2023-02-22T09:11:50;8.00;99.90
14709;DHT22;7445;50.774;4.944;2023-02-22T09:14:16;8.10;99.90
14709;DHT22;7445;50.774;4.944;2023-02-22T09:16:43;8.30;99.90
14709;DHT22;7445;50.774;4.944;2023-02-22T09:19:09;8.50;99.90
14709;DHT22;7445;50.774;4.944;2023-02-22T09:21:36;8.60;99.90
14709;DHT22;7445;50.774;4.944;2023-02-22T09:24:02;8.70;99.90
14709;DHT22;7445;50.774;4.944;2023-02-22T09:26:36;8.90;99.90
14709;DHT22;7445;50.774;4.944;2023-02-22T09:29:08;9.10;99.90
14709;DHT22;7445;50.774;4.944;2023-02-22T09:31:39;9.20;99.90
14709;DHT22;7445;50.774;4.944;2023-02-22T09:34:07;9.30;99.90
14709;DHT22;7445;50.774;4.944;2023-02-22T09:36:43;9.40;99.90
14709;DHT22;7445;50.774;4.944;2023-02-22T09:39:11;9.50;99.90
14709;DHT22;7445;50.774;4.944;2023-02-22T09:42:01;9.60;99.90
14709;DHT22;7445;50.774;4.944;2023-02-22T09:44:34;9.70;99.90
14709;DHT22;7445;50.774;4.944;2023-02-22T09:47:02;9.80;99.90
14709;DHT22;7445;50.774;4.944;2023-02-22T09:49:40;9.90;99.90
14709;DHT22;7445;50.774;4.944;2023-02-22T09:52:27;9.90;99.90
14709;DHT22;7445;50.774;4.944;2023-02-22T09:55:07;10.00;99.90
14709;DHT22;7445;50.774;4.944;2023-02-22T09:57:39;10.10;99.90
14709;DHT22;7445;50.774;4.944;2023-02-22T10:00:16;10.10;99.90
14709;DHT22;7445;50.774;4.944;2023-02-22T10:05:36;10.20;99.90
14709;DHT22;7445;50.774;4.944;2023-02-22T10:08:10;10.20;99.90
14709;DHT22;7445;50.774;4.944;2023-02-22T10:10:53;10.30;99.90
14709;DHT22;7445;50.774;4.944;2023-02-22T10:13:30;10.40;99.90
14709;DHT22;7445;50.774;4.944;2023-02-22T10:16:14;10.40;99.90
14709;DHT22;7445;50.774;4.944;2023-02-22T10:24:08;10.60;99.90
14709;DHT22;7445;50.774;4.944;2023-02-22T10:26:42;10.70;99.90
14709;DHT22;7445;50.774;4.944;2023-02-22T10:31:57;10.80;99.90
14709;DHT22;7445;50.774;4.944;2023-02-22T10:34:31;10.90;99.90
14709;DHT22;7445;50.774;4.944;2023-02-22T10:39:53;10.80;99.90
14709;DHT22;7445;50.774;4.944;2023-02-22T10:42:23;10.80;99.90
14709;DHT22;7445;50.774;4.944;2023-02-22T10:44:49;10.80;99.90
14709;DHT22;7445;50.774;4.944;2023-02-22T10:47:16;10.70;99.90
14709;DHT22;7445;50.774;4.944;2023-02-22T10:49:47;10.70;99.90
14709;DHT22;7445;50.774;4.944;2023-02-22T10:52:43;10.60;99.90
14709;DHT22;7445;50.774;4.944;2023-02-22T10:55:13;10.60;99.90
14709;DHT22;7445;50.774;4.944;2023-02-22T10:57:39;10.50;99.90
14709;DHT22;7445;50.774;4.944;2023-02-22T11:00:29;10.50;99.90
14709;DHT22;7445;50.774;4.944;2023-02-22T11:03:00;10.40;99.90
14709;DHT22;7445;50.774;4.944;2023-02-22T11:10:39;10.40;99.90
14709;DHT22;7445;50.774;4.944;2023-02-22T11:13:31;10.50;99.90
14709;DHT22;7445;50.774;4.944;2023-02-22T11:16:19;10.60;99.90
14709;DHT22;7445;50.774;4.944;2023-02-22T11:18:46;10.70;99.90
14709;DHT22;7445;50.774;4.944;2023-02-22T11:21:12;10.80;99.90
14709;DHT22;7445;50.774;4.944;2023-02-22T11:23:42;10.80;99.90
14709;DHT22;7445;50.774;4.944;2023-02-22T11:26:12;10.80;99.90
14709;DHT22;7445;50.774;4.944;2023-02-22T11:28:46;10.80;99.90
14709;DHT22;7445;50.774;4.944;2023-02-22T11:31:20;10.80;99.90
14709;DHT22;7445;50.774;4.944;2023-02-22T11:33:55;10.80;99.90
14709;DHT22;7445;50.774;4.944;2023-02-22T11:36:42;10.80;99.90
14709;DHT22;7445;50.774;4.944;2023-02-22T11:39:29;10.70;99.90
14709;DHT22;7445;50.774;4.944;2023-02-22T11:42:25;10.70;99.90
14709;DHT22;7445;50.774;4.944;2023-02-22T11:47:35;10.60;99.90
14709;DHT22;7445;50.774;4.944;2023-02-22T11:50:01;10.60;99.90
14709;DHT22;7445;50.774;4.944;2023-02-22T11:52:35;10.60;99.90
14709;DHT22;7445;50.774;4.944;2023-02-22T11:58:12;10.70;99.90
14709;DHT22;7445;50.774;4.944;2023-02-22T12:04:03;10.70;99.90
14709;DHT22;7445;50.774;4.944;2023-02-22T12:06:45;10.80;99.90
14709;DHT22;7445;50.774;4.944;2023-02-22T12:14:55;10.80;99.90
14709;DHT22;7445;50.774;4.944;2023-02-22T12:20:01;10.80;99.90
14709;DHT22;7445;50.774;4.944;2023-02-22T12:22:35;10.80;99.90
14709;DHT22;7445;50.774;4.944;2023-02-22T12:27:48;10.80;99.90
14709;DHT22;7445;50.774;4.944;2023-02-22T12:30:31;10.80;99.90
14709;DHT22;7445;50.774;4.944;2023-02-22T12:33:02;10.70;99.90
14709;DHT22;7445;50.774;4.944;2023-02-22T12:35:33;10.80;99.90
14709;DHT22;7445;50.774;4.944;2023-02-22T12:38:11;10.80;99.90
14709;DHT22;7445;50.774;4.944;2023-02-22T12:46:17;11.00;99.90
14709;DHT22;7445;50.774;4.944;2023-02-22T12:48:56;11.00;99.90
14709;DHT22;7445;50.774;4.944;2023-02-22T12:51:48;11.00;99.90
14709;DHT22;7445;50.774;4.944;2023-02-22T12:54:27;11.10;99.90
14709;DHT22;7445;50.774;4.944;2023-02-22T12:57:04;11.10;99.90
14709;DHT22;7445;50.774;4.944;2023-02-22T13:02:17;11.20;99.90
14709;DHT22;7445;50.774;4.944;2023-02-22T13:04:44;11.20;99.90
14709;DHT22;7445;50.774;4.944;2023-02-22T13:12:53;11.60;99.90
14709;DHT22;7445;50.774;4.944;2023-02-22T13:18:54;11.70;99.90
14709;DHT22;7445;50.774;4.944;2023-02-22T13:24:25;12.00;99.90
14709;DHT22;7445;50.774;4.944;2023-02-22T13:27:03;12.00;99.90
14709;DHT22;7445;50.774;4.944;2023-02-22T13:29:57;12.00;99.90
14709;DHT22;7445;50.774;4.944;2023-02-22T13:33:17;11.90;99.90
14709;DHT22;7445;50.774;4.944;2023-02-22T13:44:15;11.70;99.90
14709;DHT22;7445;50.774;4.944;2023-02-22T13:50:07;11.50;99.90
14709;DHT22;7445;50.774;4.944;2023-02-22T13:52:39;11.50;99.90
14709;DHT22;7445;50.774;4.944;2023-02-22T13:55:26;11.40;99.90
14709;DHT22;7445;50.774;4.944;2023-02-22T13:58:07;11.30;99.90
14709;DHT22;7445;50.774;4.944;2023-02-22T14:00:56;11.20;99.90
14709;DHT22;7445;50.774;4.944;2023-02-22T14:03:34;11.20;99.90
14709;DHT22;7445;50.774;4.944;2023-02-22T14:06:02;11.20;99.90
14709;DHT22;7445;50.774;4.944;2023-02-22T14:16:21;11.10;99.90
14709;DHT22;7445;50.774;4.944;2023-02-22T14:18:49;11.10;99.90
14709;DHT22;7445;50.774;4.944;2023-02-22T14:21:24;11.10;99.90
14709;DHT22;7445;50.774;4.944;2023-02-22T14:23:51;11.00;99.90
14709;DHT22;7445;50.774;4.944;2023-02-22T14:26:26;11.00;99.90
14709;DHT22;7445;50.774;4.944;2023-02-22T14:29:02;11.00;99.90
14709;DHT22;7445;50.774;4.944;2023-02-22T14:34:55;11.00;99.90
14709;DHT22;7445;50.774;4.944;2023-02-22T14:37:35;11.00;99.90
14709;DHT22;7445;50.774;4.944;2023-02-22T14:40:25;11.10;99.90
14709;DHT22;7445;50.774;4.944;2023-02-22T14:43:03;11.00;99.90
14709;DHT22;7445;50.774;4.944;2023-02-22T14:45:32;11.00;99.90
14709;DHT22;7445;50.774;4.944;2023-02-22T14:48:07;10.90;99.90
14709;DHT22;7445;50.774;4.944;2023-02-22T14:53:43;10.90;99.90
14709;DHT22;7445;50.774;4.944;2023-02-22T14:56:17;10.90;99.90
14709;DHT22;7445;50.774;4.944;2023-02-22T14:59:19;10.90;99.90
14709;DHT22;7445;50.774;4.944;2023-02-22T15:01:46;10.90;99.90
14709;DHT22;7445;50.774;4.944;2023-02-22T15:06:51;10.80;99.90
14709;DHT22;7445;50.774;4.944;2023-02-22T15:09:23;10.80;99.90
14709;DHT22;7445;50.774;4.944;2023-02-22T15:11:53;10.80;99.90
14709;DHT22;7445;50.774;4.944;2023-02-22T15:17:21;10.70;99.90
14709;DHT22;7445;50.774;4.944;2023-02-22T15:19:49;10.70;99.90
14709;DHT22;7445;50.774;4.944;2023-02-22T15:22:26;10.70;99.90
14709;DHT22;7445;50.774;4.944;2023-02-22T15:24:57;10.70;99.90
14709;DHT22;7445;50.774;4.944;2023-02-22T15:27:24;10.70;99.90
14709;DHT22;7445;50.774;4.944;2023-02-22T15:29:58;10.70;99.90
14709;DHT22;7445;50.774;4.944;2023-02-22T15:32:33;10.70;99.90
14709;DHT22;7445;50.774;4.944;2023-02-22T15:37:45;10.70;99.90
14709;DHT22;7445;50.774;4.944;2023-02-22T15:40:16;10.60;99.90
14709;DHT22;7445;50.774;4.944;2023-02-22T15:43:06;10.60;99.90
14709;DHT22;7445;50.774;4.944;2023-02-22T15:45:54;10.60;99.90
14709;DHT22;7445;50.774;4.944;2023-02-22T15:48:21;10.60;99.90
14709;DHT22;7445;50.774;4.944;2023-02-22T15:54:05;10.50;99.90
14709;DHT22;7445;50.774;4.944;2023-02-22T15:56:34;10.50;99.90
14709;DHT22;7445;50.774;4.944;2023-02-22T15:59:11;10.50;99.90
14709;DHT22;7445;50.774;4.944;2023-02-22T16:01:41;10.60;99.90
14709;DHT22;7445;50.774;4.944;2023-02-22T16:04:25;10.50;99.90
14709;DHT22;7445;50.774;4.944;2023-02-22T16:07:01;10.50;99.90
14709;DHT22;7445;50.774;4.944;2023-02-22T16:09:27;10.50;99.90
14709;DHT22;7445;50.774;4.944;2023-02-22T16:12:33;10.50;99.90
14709;DHT22;7445;50.774;4.944;2023-02-22T16:15:00;10.50;99.90
14709;DHT22;7445;50.774;4.944;2023-02-22T16:17:33;10.40;99.90
14709;DHT22;7445;50.774;4.944;2023-02-22T16:22:45;10.40;99.90
14709;DHT22;7445;50.774;4.944;2023-02-22T16:27:54;10.30;99.90
14709;DHT22;7445;50.774;4.944;2023-02-22T16:30:36;10.20;99.90
14709;DHT22;7445;50.774;4.944;2023-02-22T16:33:05;10.20;99.90
14709;DHT22;7445;50.774;4.944;2023-02-22T16:36:45;10.10;99.90
14709;DHT22;7445;50.774;4.944;2023-02-22T16:39:30;10.00;99.90
14709;DHT22;7445;50.774;4.944;2023-02-22T16:42:02;10.00;99.90
14709;DHT22;7445;50.774;4.944;2023-02-22T16:44:28;10.00;99.90
14709;DHT22;7445;50.774;4.944;2023-02-22T16:46:57;9.90;99.90
14709;DHT22;7445;50.774;4.944;2023-02-22T16:49:23;9.90;99.90
14709;DHT22;7445;50.774;4.944;2023-02-22T16:51:59;9.90;99.90
14709;DHT22;7445;50.774;4.944;2023-02-22T16:54:33;9.90;99.90
14709;DHT22;7445;50.774;4.944;2023-02-22T16:57:01;9.90;99.90
14709;DHT22;7445;50.774;4.944;2023-02-22T16:59:30;9.90;99.90
14709;DHT22;7445;50.774;4.944;2023-02-22T17:01:57;9.90;99.90
14709;DHT22;7445;50.774;4.944;2023-02-22T17:04:24;9.80;99.90
14709;DHT22;7445;50.774;4.944;2023-02-22T17:06:51;9.90;99.90
14709;DHT22;7445;50.774;4.944;2023-02-22T17:09:17;9.80;99.90
14709;DHT22;7445;50.774;4.944;2023-02-22T17:11:45;9.80;99.90
14709;DHT22;7445;50.774;4.944;2023-02-22T17:14:17;9.70;99.90
14709;DHT22;7445;50.774;4.944;2023-02-22T17:16:43;9.70;99.90
14709;DHT22;7445;50.774;4.944;2023-02-22T17:19:17;9.70;99.90
14709;DHT22;7445;50.774;4.944;2023-02-22T17:21:43;9.70;99.90
14709;DHT22;7445;50.774;4.944;2023-02-22T17:24:11;9.70;99.90
14709;DHT22;7445;50.774;4.944;2023-02-22T17:26:38;9.60;99.90
14709;DHT22;7445;50.774;4.944;2023-02-22T17:29:04;9.60;99.90
14709;DHT22;7445;50.774;4.944;2023-02-22T17:31:30;9.60;99.90
14709;DHT22;7445;50.774;4.944;2023-02-22T17:34:01;9.60;99.90
14709;DHT22;7445;50.774;4.944;2023-02-22T17:36:28;9.60;99.90
14709;DHT22;7445;50.774;4.944;2023-02-22T17:38:54;9.60;99.90
14709;DHT22;7445;50.774;4.944;2023-02-22T17:41:20;9.60;99.90
14709;DHT22;7445;50.774;4.944;2023-02-22T17:43:46;9.60;99.90
14709;DHT22;7445;50.774;4.944;2023-02-22T17:46:11;9.60;99.90
14709;DHT22;7445;50.774;4.944;2023-02-22T17:48:37;9.60;99.90
14709;DHT22;7445;50.774;4.944;2023-02-22T17:51:09;9.60;99.90
14709;DHT22;7445;50.774;4.944;2023-02-22T17:53:35;9.50;99.90
14709;DHT22;7445;50.774;4.944;2023-02-22T17:56:09;9.50;99.90
14709;DHT22;7445;50.774;4.944;2023-02-22T17:58:37;9.50;99.90
14709;DHT22;7445;50.774;4.944;2023-02-22T18:01:03;9.40;99.90
14709;DHT22;7445;50.774;4.944;2023-02-22T18:03:29;9.40;99.90
14709;DHT22;7445;50.774;4.944;2023-02-22T18:05:57;9.40;99.90
14709;DHT22;7445;50.774;4.944;2023-02-22T18:08:25;9.40;99.90
14709;DHT22;7445;50.774;4.944;2023-02-22T18:10:52;9.40;99.90
14709;DHT22;7445;50.774;4.944;2023-02-22T18:13:21;9.40;99.90
14709;DHT22;7445;50.774;4.944;2023-02-22T18:15:47;9.40;99.90
14709;DHT22;7445;50.774;4.944;2023-02-22T18:18:14;9.40;99.90
14709;DHT22;7445;50.774;4.944;2023-02-22T18:20:42;9.40;99.90
14709;DHT22;7445;50.774;4.944;2023-02-22T18:23:17;9.40;99.90
14709;DHT22;7445;50.774;4.944;2023-02-22T18:25:49;9.40;99.90
14709;DHT22;7445;50.774;4.944;2023-02-22T18:28:17;9.40;99.90
14709;DHT22;7445;50.774;4.944;2023-02-22T18:30:43;9.40;99.90
14709;DHT22;7445;50.774;4.944;2023-02-22T18:33:09;9.40;99.90
14709;DHT22;7445;50.774;4.944;2023-02-22T18:35:44;9.40;99.90
14709;DHT22;7445;50.774;4.944;2023-02-22T18:38:12;9.40;99.90
14709;DHT22;7445;50.774;4.944;2023-02-22T18:40:42;9.30;99.90
14709;DHT22;7445;50.774;4.944;2023-02-22T18:43:11;9.30;99.90
14709;DHT22;7445;50.774;4.944;2023-02-22T18:45:37;9.30;99.90
14709;DHT22;7445;50.774;4.944;2023-02-22T18:48:02;9.20;99.90
14709;DHT22;7445;50.774;4.944;2023-02-22T18:50:28;9.20;99.90
14709;DHT22;7445;50.774;4.944;2023-02-22T18:52:54;9.20;99.90
14709;DHT22;7445;50.774;4.944;2023-02-22T18:55:20;9.30;99.90
14709;DHT22;7445;50.774;4.944;2023-02-22T18:57:47;9.20;99.90
14709;DHT22;7445;50.774;4.944;2023-02-22T19:00:18;9.20;99.90
14709;DHT22;7445;50.774;4.944;2023-02-22T19:02:43;9.20;99.90
14709;DHT22;7445;50.774;4.944;2023-02-22T19:05:10;9.20;99.90
14709;DHT22;7445;50.774;4.944;2023-02-22T19:07:36;9.20;99.90
14709;DHT22;7445;50.774;4.944;2023-02-22T19:10:03;9.20;99.90
14709;DHT22;7445;50.774;4.944;2023-02-22T19:12:29;9.20;99.90
14709;DHT22;7445;50.774;4.944;2023-02-22T19:14:56;9.20;99.90
14709;DHT22;7445;50.774;4.944;2023-02-22T19:17:22;9.20;99.90
14709;DHT22;7445;50.774;4.944;2023-02-22T19:19:48;9.10;99.90
14709;DHT22;7445;50.774;4.944;2023-02-22T19:22:14;9.10;99.90
14709;DHT22;7445;50.774;4.944;2023-02-22T19:24:41;9.10;99.90
14709;DHT22;7445;50.774;4.944;2023-02-22T19:27:07;9.20;99.90
14709;DHT22;7445;50.774;4.944;2023-02-22T19:29:32;9.20;99.90
14709;DHT22;7445;50.774;4.944;2023-02-22T19:31:58;9.20;99.90
14709;DHT22;7445;50.774;4.944;2023-02-22T19:34:23;9.20;99.90
14709;DHT22;7445;50.774;4.944;2023-02-22T19:36:50;9.20;99.90
14709;DHT22;7445;50.774;4.944;2023-02-22T19:39:20;9.10;99.90
14709;DHT22;7445;50.774;4.944;2023-02-22T19:41:46;9.10;99.90
14709;DHT22;7445;50.774;4.944;2023-02-22T19:44:12;9.10;99.90
14709;DHT22;7445;50.774;4.944;2023-02-22T19:46:38;9.10;99.90
14709;DHT22;7445;50.774;4.944;2023-02-22T19:49:05;9.10;99.90
14709;DHT22;7445;50.774;4.944;2023-02-22T19:51:32;9.10;99.90
14709;DHT22;7445;50.774;4.944;2023-02-22T19:53:59;9.10;99.90
14709;DHT22;7445;50.774;4.944;2023-02-22T19:56:27;9.10;99.90
14709;DHT22;7445;50.774;4.944;2023-02-22T19:59:00;9.10;99.90
14709;DHT22;7445;50.774;4.944;2023-02-22T20:01:29;9.10;99.90
14709;DHT22;7445;50.774;4.944;2023-02-22T20:04:02;9.10;99.90
14709;DHT22;7445;50.774;4.944;2023-02-22T20:06:39;9.00;99.90
14709;DHT22;7445;50.774;4.944;2023-02-22T20:09:08;9.00;99.90
14709;DHT22;7445;50.774;4.944;2023-02-22T20:11:35;9.00;99.90
14709;DHT22;7445;50.774;4.944;2023-02-22T20:14:02;9.10;99.90
14709;DHT22;7445;50.774;4.944;2023-02-22T20:16:31;9.00;99.90
14709;DHT22;7445;50.774;4.944;2023-02-22T20:18:57;9.00;99.90
14709;DHT22;7445;50.774;4.944;2023-02-22T20:21:31;9.00;99.90
14709;DHT22;7445;50.774;4.944;2023-02-22T20:24:02;9.00;99.90
14709;DHT22;7445;50.774;4.944;2023-02-22T20:26:33;9.00;99.90
14709;DHT22;7445;50.774;4.944;2023-02-22T20:29:01;8.90;99.90
14709;DHT22;7445;50.774;4.944;2023-02-22T20:31:29;8.90;99.90
14709;DHT22;7445;50.774;4.944;2023-02-22T20:33:57;9.00;99.90
14709;DHT22;7445;50.774;4.944;2023-02-22T20:36:23;8.90;99.90
14709;DHT22;7445;50.774;4.944;2023-02-22T20:38:57;8.90;99.90
14709;DHT22;7445;50.774;4.944;2023-02-22T20:41:31;9.10;99.90
14709;DHT22;7445;50.774;4.944;2023-02-22T20:43:58;9.00;99.90
14709;DHT22;7445;50.774;4.944;2023-02-22T20:46:26;9.00;99.90
14709;DHT22;7445;50.774;4.944;2023-02-22T20:48:58;8.90;99.90
14709;DHT22;7445;50.774;4.944;2023-02-22T20:51:26;9.00;99.90
14709;DHT22;7445;50.774;4.944;2023-02-22T20:53:53;8.90;99.90
14709;DHT22;7445;50.774;4.944;2023-02-22T20:56:22;8.90;99.90
14709;DHT22;7445;50.774;4.944;2023-02-22T20:58:48;8.90;99.90
14709;DHT22;7445;50.774;4.944;2023-02-22T21:01:22;8.80;99.90
14709;DHT22;7445;50.774;4.944;2023-02-22T21:03:48;8.90;99.90
14709;DHT22;7445;50.774;4.944;2023-02-22T21:06:15;8.90;99.90
14709;DHT22;7445;50.774;4.944;2023-02-22T21:08:42;8.80;99.90
14709;DHT22;7445;50.774;4.944;2023-02-22T21:11:10;8.80;99.90
14709;DHT22;7445;50.774;4.944;2023-02-22T21:13:36;8.80;99.90
14709;DHT22;7445;50.774;4.944;2023-02-22T21:16:02;8.80;99.90
14709;DHT22;7445;50.774;4.944;2023-02-22T21:18:27;8.80;99.90
14709;DHT22;7445;50.774;4.944;2023-02-22T21:20:53;8.80;99.90
14709;DHT22;7445;50.774;4.944;2023-02-22T21:23:19;8.80;99.90
14709;DHT22;7445;50.774;4.944;2023-02-22T21:25:51;8.70;99.90
14709;DHT22;7445;50.774;4.944;2023-02-22T21:28:17;8.70;99.90
14709;DHT22;7445;50.774;4.944;2023-02-22T21:30:44;8.70;99.90
